createdAt,value
2018-04-23T00:00:32.871Z,19.02
2018-04-23T00:01:32.936Z,19.14
2018-04-23T00:02:32.992Z,19.26
2018-04-23T00:03:33.067Z,19.16
2018-04-23T00:04:33.124Z,19.18
2018-04-23T00:05:33.205Z,19.14
2018-04-23T00:06:33.420Z,18.99
2018-04-23T00:07:33.324Z,18.92
2018-04-23T00:08:33.380Z,18.80
2018-04-23T00:09:33.448Z,18.68
2018-04-23T00:10:33.520Z,18.50
2018-04-23T00:11:33.604Z,18.41
2018-04-23T00:12:33.657Z,18.37
2018-04-23T00:13:33.716Z,18.16
2018-04-23T00:14:33.777Z,17.98
2018-04-23T00:15:33.857Z,17.76
2018-04-23T00:16:33.913Z,17.74
2018-04-23T00:17:33.993Z,17.54
2018-04-23T00:18:34.041Z,17.41
2018-04-23T00:19:34.114Z,17.30
2018-04-23T00:20:34.169Z,17.31
2018-04-23T00:21:34.247Z,17.23
2018-04-23T00:22:34.320Z,17.12
2018-04-23T00:23:34.361Z,17.12
2018-04-23T00:24:34.428Z,17.02
2018-04-23T00:25:34.501Z,16.99
2018-04-23T00:26:34.561Z,16.97
2018-04-23T00:27:34.633Z,16.87
2018-04-23T00:28:34.702Z,16.96
2018-04-23T00:29:34.761Z,16.87
2018-04-23T00:30:34.817Z,16.86
2018-04-23T00:31:34.889Z,16.87
2018-04-23T00:32:34.953Z,16.91
2018-04-23T00:33:35.025Z,16.91
2018-04-23T00:34:35.085Z,16.75
2018-04-23T00:35:35.150Z,16.76
2018-04-23T00:36:35.213Z,16.75
2018-04-23T00:37:35.301Z,16.74
2018-04-23T00:38:35.353Z,16.76
2018-04-23T00:39:35.409Z,16.76
2018-04-23T00:40:35.476Z,16.71
2018-04-23T00:41:35.537Z,16.74
2018-04-23T00:42:35.609Z,16.69
2018-04-23T00:43:35.701Z,16.71
2018-04-23T00:44:35.729Z,16.60
2018-04-23T00:45:35.805Z,16.65
2018-04-23T00:46:35.865Z,16.65
2018-04-23T00:47:35.977Z,16.64
2018-04-23T00:48:36.005Z,16.64
2018-04-23T00:49:36.058Z,16.56
2018-04-23T00:50:36.125Z,16.49
2018-04-23T00:51:36.198Z,16.54
2018-04-23T00:52:36.270Z,16.49
2018-04-23T00:53:36.330Z,16.39
2018-04-23T00:54:36.390Z,16.41
2018-04-23T00:55:36.450Z,16.39
2018-04-23T00:56:36.519Z,16.32
2018-04-23T00:57:36.595Z,16.31
2018-04-23T00:58:36.663Z,16.29
2018-04-23T00:59:36.714Z,16.29
2018-04-23T01:00:36.790Z,16.29
2018-04-23T01:01:36.845Z,16.36
2018-04-23T01:02:36.918Z,16.21
2018-04-23T01:03:36.991Z,16.29
2018-04-23T01:04:37.047Z,16.26
2018-04-23T01:05:37.103Z,16.15
2018-04-23T01:06:37.179Z,16.13
2018-04-23T01:07:37.235Z,16.04
2018-04-23T01:08:37.455Z,16.10
2018-04-23T01:09:37.366Z,16.04
2018-04-23T01:10:37.434Z,16.09
2018-04-23T01:11:37.501Z,16.05
2018-04-23T01:12:37.562Z,16.05
2018-04-23T01:13:37.630Z,15.97
2018-04-23T01:14:37.707Z,16.08
2018-04-23T01:15:37.763Z,16.02
2018-04-23T01:16:37.823Z,15.98
2018-04-23T01:17:37.887Z,15.95
2018-04-23T01:18:37.983Z,16.00
2018-04-23T01:19:38.023Z,16.04
2018-04-23T01:20:38.085Z,15.98
2018-04-23T01:21:38.143Z,15.84
2018-04-23T01:22:38.215Z,15.83
2018-04-23T01:23:38.279Z,15.86
2018-04-23T01:24:38.651Z,15.90
2018-04-23T01:25:38.407Z,15.82
2018-04-23T01:26:38.480Z,15.76
2018-04-23T01:27:38.551Z,15.70
2018-04-23T01:28:38.611Z,15.72
2018-04-23T01:29:38.683Z,15.72
2018-04-23T01:30:38.756Z,15.64
2018-04-23T01:31:38.799Z,15.64
2018-04-23T01:32:38.867Z,15.65
2018-04-23T01:33:38.932Z,15.65
2018-04-23T01:34:39.012Z,15.62
2018-04-23T01:35:39.067Z,15.64
2018-04-23T01:36:39.126Z,15.49
2018-04-23T01:37:39.192Z,15.44
2018-04-23T01:38:39.260Z,15.47
2018-04-23T01:39:39.320Z,15.59
2018-04-23T01:40:39.500Z,15.46
2018-04-23T01:41:39.456Z,15.62
2018-04-23T01:42:39.516Z,15.47
2018-04-23T01:43:39.580Z,15.54
2018-04-23T01:44:39.649Z,15.46
2018-04-23T01:45:39.716Z,15.54
2018-04-23T01:46:39.784Z,15.54
2018-04-23T01:47:39.848Z,15.59
2018-04-23T01:48:39.908Z,15.57
2018-04-23T01:49:39.972Z,15.49
2018-04-23T01:50:40.044Z,15.52
2018-04-23T01:51:40.109Z,15.52
2018-04-23T01:52:40.164Z,15.51
2018-04-23T01:53:40.233Z,15.59
2018-04-23T01:54:40.296Z,15.55
2018-04-23T01:55:40.369Z,15.57
2018-04-23T01:56:40.458Z,15.57
2018-04-23T01:57:40.500Z,15.54
2018-04-23T01:58:40.557Z,15.55
2018-04-23T01:59:40.620Z,15.44
2018-04-23T02:00:40.700Z,15.42
2018-04-23T02:01:40.757Z,15.46
2018-04-23T02:02:40.818Z,15.46
2018-04-23T02:03:40.881Z,15.47
2018-04-23T02:04:40.945Z,15.54
2018-04-23T02:05:41.016Z,15.54
2018-04-23T02:06:41.085Z,15.52
2018-04-23T02:07:41.141Z,15.51
2018-04-23T02:08:41.207Z,15.44
2018-04-23T02:09:41.273Z,15.51
2018-04-23T02:10:41.358Z,15.55
2018-04-23T02:11:41.402Z,15.54
2018-04-23T02:12:41.467Z,15.52
2018-04-23T02:13:41.529Z,15.49
2018-04-23T02:14:41.597Z,15.51
2018-04-23T02:15:41.669Z,15.46
2018-04-23T02:16:41.732Z,15.49
2018-04-23T02:17:41.789Z,15.49
2018-04-23T02:18:41.857Z,15.40
2018-04-23T02:19:41.921Z,15.46
2018-04-23T02:20:41.989Z,15.43
2018-04-23T02:21:42.057Z,15.40
2018-04-23T02:22:42.118Z,15.39
2018-04-23T02:23:42.181Z,15.42
2018-04-23T02:24:42.245Z,15.42
2018-04-23T02:25:42.330Z,15.44
2018-04-23T02:26:42.373Z,15.40
2018-04-23T02:27:42.441Z,15.42
2018-04-23T02:28:42.505Z,15.42
2018-04-23T02:29:42.569Z,15.42
2018-04-23T02:30:42.641Z,15.42
2018-04-23T02:31:42.706Z,15.46
2018-04-23T02:32:42.763Z,15.44
2018-04-23T02:33:42.830Z,15.37
2018-04-23T02:34:42.894Z,15.42
2018-04-23T02:35:42.966Z,15.47
2018-04-23T02:36:43.031Z,15.46
2018-04-23T02:37:43.094Z,15.54
2018-04-23T02:38:43.155Z,15.55
2018-04-23T02:39:43.219Z,15.59
2018-04-23T02:40:43.394Z,15.58
2018-04-23T02:41:43.346Z,15.55
2018-04-23T02:42:43.414Z,15.58
2018-04-23T02:43:43.478Z,15.57
2018-04-23T02:44:43.542Z,15.55
2018-04-23T02:45:43.616Z,15.49
2018-04-23T02:46:43.680Z,15.51
2018-04-23T02:47:43.739Z,15.55
2018-04-23T02:48:43.803Z,15.55
2018-04-23T02:49:43.867Z,15.55
2018-04-23T02:50:43.939Z,15.55
2018-04-23T02:51:44.003Z,15.59
2018-04-23T02:52:44.063Z,15.59
2018-04-23T02:53:44.130Z,15.61
2018-04-23T02:54:44.191Z,15.65
2018-04-23T02:55:44.267Z,15.65
2018-04-23T02:56:44.475Z,15.79
2018-04-23T02:57:44.387Z,15.86
2018-04-23T02:58:44.451Z,15.95
2018-04-23T02:59:44.515Z,15.98
2018-04-23T03:00:44.579Z,16.05
2018-04-23T03:01:44.651Z,15.98
2018-04-23T03:02:44.723Z,16.02
2018-04-23T03:03:44.783Z,16.15
2018-04-23T03:04:44.840Z,16.16
2018-04-23T03:05:44.903Z,16.09
2018-04-23T03:06:44.975Z,16.16
2018-04-23T03:07:45.059Z,16.08
2018-04-23T03:08:45.099Z,16.02
2018-04-23T03:09:45.164Z,16.08
2018-04-23T03:10:45.228Z,16.10
2018-04-23T03:11:45.592Z,15.95
2018-04-23T03:12:45.360Z,16.02
2018-04-23T03:13:45.424Z,16.02
2018-04-23T03:14:45.488Z,16.04
2018-04-23T03:15:45.552Z,16.01
2018-04-23T03:16:45.624Z,16.04
2018-04-23T03:17:45.688Z,16.00
2018-04-23T03:18:45.747Z,15.91
2018-04-23T03:19:45.812Z,15.97
2018-04-23T03:20:45.876Z,15.97
2018-04-23T03:21:45.948Z,15.97
2018-04-23T03:22:46.052Z,15.98
2018-04-23T03:23:46.072Z,16.02
2018-04-23T03:24:46.136Z,15.98
2018-04-23T03:25:46.216Z,15.92
2018-04-23T03:26:46.280Z,16.02
2018-04-23T03:27:46.336Z,15.94
2018-04-23T03:28:46.398Z,16.00
2018-04-23T03:29:46.461Z,15.98
2018-04-23T03:30:46.531Z,15.94
2018-04-23T03:31:46.612Z,15.95
2018-04-23T03:32:46.661Z,16.02
2018-04-23T03:33:46.724Z,15.98
2018-04-23T03:34:46.785Z,15.94
2018-04-23T03:35:46.848Z,15.94
2018-04-23T03:36:46.921Z,16.01
2018-04-23T03:37:46.985Z,16.02
2018-04-23T03:38:47.045Z,16.01
2018-04-23T03:39:47.108Z,16.01
2018-04-23T03:40:47.173Z,15.90
2018-04-23T03:41:47.252Z,15.91
2018-04-23T03:42:47.301Z,15.84
2018-04-23T03:43:47.369Z,15.90
2018-04-23T03:44:47.432Z,15.83
2018-04-23T03:45:47.497Z,15.86
2018-04-23T03:46:47.569Z,15.86
2018-04-23T03:47:47.633Z,15.67
2018-04-23T03:48:47.689Z,15.80
2018-04-23T03:49:47.761Z,15.72
2018-04-23T03:50:47.821Z,15.67
2018-04-23T03:51:47.893Z,15.65
2018-04-23T03:52:47.957Z,15.59
2018-04-23T03:53:48.014Z,15.54
2018-04-23T03:54:48.081Z,15.44
2018-04-23T03:55:48.145Z,15.55
2018-04-23T03:56:48.361Z,15.55
2018-04-23T03:57:48.273Z,15.46
2018-04-23T03:58:48.338Z,15.47
2018-04-23T03:59:48.405Z,15.47
2018-04-23T04:00:48.465Z,15.52
2018-04-23T04:01:48.538Z,15.39
2018-04-23T04:02:48.606Z,15.40
2018-04-23T04:03:48.662Z,15.36
2018-04-23T04:04:48.726Z,15.40
2018-04-23T04:05:48.790Z,15.40
2018-04-23T04:06:48.868Z,15.44
2018-04-23T04:07:48.929Z,15.43
2018-04-23T04:08:48.986Z,15.35
2018-04-23T04:09:49.050Z,15.39
2018-04-23T04:10:49.114Z,15.19
2018-04-23T04:11:49.202Z,15.36
2018-04-23T04:12:49.247Z,15.29
2018-04-23T04:13:49.310Z,15.31
2018-04-23T04:14:49.378Z,15.31
2018-04-23T04:15:49.438Z,15.40
2018-04-23T04:16:49.562Z,15.42
2018-04-23T04:17:49.576Z,15.36
2018-04-23T04:18:49.635Z,15.33
2018-04-23T04:19:49.698Z,15.25
2018-04-23T04:20:49.762Z,15.29
2018-04-23T04:21:49.837Z,15.24
2018-04-23T04:22:49.903Z,15.29
2018-04-23T04:23:49.958Z,15.17
2018-04-23T04:24:50.024Z,15.19
2018-04-23T04:25:50.092Z,15.24
2018-04-23T04:26:50.167Z,15.25
2018-04-23T04:27:50.214Z,15.22
2018-04-23T04:28:50.278Z,15.17
2018-04-23T04:29:50.346Z,15.11
2018-04-23T04:30:50.411Z,15.19
2018-04-23T04:31:50.486Z,15.14
2018-04-23T04:32:50.547Z,15.10
2018-04-23T04:33:50.602Z,15.11
2018-04-23T04:34:50.671Z,15.10
2018-04-23T04:35:50.735Z,15.22
2018-04-23T04:36:50.802Z,15.21
2018-04-23T04:37:50.871Z,15.29
2018-04-23T04:38:50.943Z,15.28
2018-04-23T04:39:50.991Z,15.36
2018-04-23T04:40:51.059Z,15.39
2018-04-23T04:41:51.227Z,15.42
2018-04-23T04:42:51.187Z,15.37
2018-04-23T04:43:51.254Z,15.42
2018-04-23T04:44:51.316Z,15.39
2018-04-23T04:45:51.380Z,15.39
2018-04-23T04:46:51.452Z,15.46
2018-04-23T04:47:51.516Z,15.43
2018-04-23T04:48:51.580Z,15.42
2018-04-23T04:49:51.640Z,15.42
2018-04-23T04:50:51.704Z,15.40
2018-04-23T04:51:51.776Z,15.44
2018-04-23T04:52:51.839Z,15.43
2018-04-23T04:53:51.899Z,15.43
2018-04-23T04:54:51.964Z,15.43
2018-04-23T04:55:52.027Z,15.43
2018-04-23T04:56:52.108Z,15.42
2018-04-23T04:57:52.156Z,15.43
2018-04-23T04:58:52.224Z,15.42
2018-04-23T04:59:52.289Z,15.42
2018-04-23T05:00:52.356Z,15.40
2018-04-23T05:01:52.424Z,15.43
2018-04-23T05:02:52.488Z,15.40
2018-04-23T05:03:52.548Z,15.36
2018-04-23T05:04:52.612Z,15.39
2018-04-23T05:05:52.691Z,15.57
2018-04-23T05:06:52.748Z,15.47
2018-04-23T05:07:52.812Z,15.39
2018-04-23T05:08:52.870Z,15.39
2018-04-23T05:09:53.208Z,15.43
2018-04-23T05:10:53.000Z,15.43
2018-04-23T05:11:53.073Z,15.42
2018-04-23T05:12:53.137Z,15.40
2018-04-23T05:13:53.193Z,15.49
2018-04-23T05:14:53.260Z,15.44
2018-04-23T05:15:53.324Z,15.52
2018-04-23T05:16:53.396Z,15.54
2018-04-23T05:17:53.460Z,15.55
2018-04-23T05:18:53.517Z,15.62
2018-04-23T05:19:53.581Z,15.55
2018-04-23T05:20:53.649Z,15.58
2018-04-23T05:21:53.717Z,15.59
2018-04-23T05:22:53.785Z,15.55
2018-04-23T05:23:53.937Z,15.47
2018-04-23T05:24:53.909Z,15.59
2018-04-23T05:25:53.969Z,15.49
2018-04-23T05:26:54.045Z,15.51
2018-04-23T05:27:54.109Z,15.58
2018-04-23T05:28:54.165Z,15.65
2018-04-23T05:29:54.233Z,15.68
2018-04-23T05:30:54.301Z,15.70
2018-04-23T05:31:54.750Z,15.73
2018-04-23T05:32:54.425Z,15.62
2018-04-23T05:33:54.491Z,15.62
2018-04-23T05:34:54.558Z,15.59
2018-04-23T05:35:54.621Z,15.55
2018-04-23T05:36:54.685Z,15.54
2018-04-23T05:37:54.766Z,15.62
2018-04-23T05:38:54.814Z,15.51
2018-04-23T05:39:54.878Z,15.54
2018-04-23T05:40:54.944Z,15.57
2018-04-23T05:41:55.010Z,15.51
2018-04-23T05:42:55.242Z,15.57
2018-04-23T05:43:55.143Z,15.52
2018-04-23T05:44:55.204Z,15.62
2018-04-23T05:45:55.266Z,15.58
2018-04-23T05:46:55.333Z,15.55
2018-04-23T05:47:55.406Z,15.59
2018-04-23T05:48:55.470Z,15.57
2018-04-23T05:49:55.526Z,15.64
2018-04-23T05:50:55.594Z,15.61
2018-04-23T05:51:55.658Z,15.67
2018-04-23T05:52:55.726Z,15.68
2018-04-23T05:53:55.799Z,15.68
2018-04-23T05:54:55.851Z,15.70
2018-04-23T05:55:55.914Z,15.76
2018-04-23T05:56:55.998Z,15.73
2018-04-23T05:57:56.161Z,15.75
2018-04-23T05:58:56.117Z,15.82
2018-04-23T05:59:56.173Z,15.91
2018-04-23T06:00:56.238Z,15.88
2018-04-23T06:01:56.309Z,15.79
2018-04-23T06:02:56.522Z,15.68
2018-04-23T06:03:56.437Z,15.75
2018-04-23T06:04:56.506Z,15.67
2018-04-23T06:05:56.561Z,15.62
2018-04-23T06:06:56.630Z,15.64
2018-04-23T06:07:56.705Z,15.67
2018-04-23T06:08:56.765Z,15.70
2018-04-23T06:09:56.822Z,15.72
2018-04-23T06:10:56.885Z,15.84
2018-04-23T06:11:56.953Z,15.90
2018-04-23T06:12:57.023Z,16.00
2018-04-23T06:13:57.090Z,15.98
2018-04-23T06:14:57.145Z,15.98
2018-04-23T06:15:57.214Z,16.09
2018-04-23T06:16:57.277Z,16.26
2018-04-23T06:17:57.673Z,16.24
2018-04-23T06:18:57.406Z,16.31
2018-04-23T06:19:57.473Z,16.38
2018-04-23T06:20:57.537Z,16.51
2018-04-23T06:21:57.601Z,16.61
2018-04-23T06:22:57.665Z,16.56
2018-04-23T06:23:57.949Z,16.71
2018-04-23T06:24:57.797Z,16.79
2018-04-23T06:25:57.861Z,16.94
2018-04-23T06:26:57.925Z,16.89
2018-04-23T06:27:57.997Z,17.01
2018-04-23T06:28:58.065Z,17.02
2018-04-23T06:29:58.130Z,16.84
2018-04-23T06:30:58.189Z,16.99
2018-04-23T06:31:58.260Z,17.01
2018-04-23T06:32:58.317Z,17.01
2018-04-23T06:33:58.389Z,16.99
2018-04-23T06:34:58.465Z,17.08
2018-04-23T06:35:58.522Z,17.19
2018-04-23T06:36:58.582Z,17.33
2018-04-23T06:37:58.649Z,17.34
2018-04-23T06:38:58.722Z,17.38
2018-04-23T06:39:58.786Z,17.49
2018-04-23T06:40:58.848Z,17.64
2018-04-23T06:41:58.916Z,17.54
2018-04-23T06:42:58.978Z,17.68
2018-04-23T06:43:59.052Z,17.67
2018-04-23T06:44:59.168Z,17.67
2018-04-23T06:45:59.174Z,17.60
2018-04-23T06:46:59.247Z,17.76
2018-04-23T06:47:59.310Z,17.95
2018-04-23T06:48:59.386Z,17.95
2018-04-23T06:49:59.446Z,18.03
2018-04-23T06:50:59.506Z,18.07
2018-04-23T06:51:59.574Z,18.20
2018-04-23T06:52:59.646Z,18.19
2018-04-23T06:53:59.714Z,18.22
2018-04-23T06:54:59.792Z,18.25
2018-04-23T06:55:59.842Z,18.25
2018-04-23T06:56:59.906Z,18.18
2018-04-23T06:57:59.979Z,18.52
2018-04-23T06:59:00.099Z,18.62
2018-04-23T07:00:00.119Z,18.74
2018-04-23T07:01:00.176Z,18.86
2018-04-23T07:02:00.245Z,18.58
2018-04-23T07:03:00.312Z,18.71
2018-04-23T07:04:00.384Z,18.50
2018-04-23T07:05:00.503Z,18.52
2018-04-23T07:06:00.512Z,18.41
2018-04-23T07:07:00.580Z,18.55
2018-04-23T07:08:00.652Z,18.16
2018-04-23T07:09:00.723Z,18.29
2018-04-23T07:10:00.792Z,18.33
2018-04-23T07:11:00.852Z,18.10
2018-04-23T07:12:00.916Z,18.20
2018-04-23T07:13:00.988Z,18.04
2018-04-23T07:14:01.066Z,17.80
2018-04-23T07:15:01.124Z,17.92
2018-04-23T07:16:01.231Z,17.95
2018-04-23T07:17:01.252Z,18.00
2018-04-23T07:18:01.323Z,18.03
2018-04-23T07:19:01.397Z,18.04
2018-04-23T07:20:01.460Z,18.20
2018-04-23T07:21:01.520Z,18.55
2018-04-23T07:22:01.588Z,18.45
2018-04-23T07:23:01.660Z,18.19
2018-04-23T07:24:01.741Z,18.50
2018-04-23T07:25:01.806Z,18.45
2018-04-23T07:26:01.965Z,18.40
2018-04-23T07:27:01.928Z,18.53
2018-04-23T07:28:01.996Z,18.49
2018-04-23T07:29:02.076Z,18.53
2018-04-23T07:30:02.136Z,18.45
2018-04-23T07:31:02.201Z,18.59
2018-04-23T07:32:02.264Z,18.63
2018-04-23T07:33:02.345Z,18.49
2018-04-23T07:34:02.413Z,18.63
2018-04-23T07:35:02.483Z,18.90
2018-04-23T07:36:02.578Z,19.45
2018-04-23T07:37:02.606Z,19.86
2018-04-23T07:38:02.706Z,20.59
2018-04-23T07:39:02.778Z,21.25
2018-04-23T07:40:02.823Z,21.75
2018-04-23T07:41:02.878Z,21.98
2018-04-23T07:42:02.942Z,22.06
2018-04-23T07:43:03.014Z,21.93
2018-04-23T07:44:03.258Z,21.77
2018-04-23T07:45:03.160Z,21.57
2018-04-23T07:46:03.231Z,21.55
2018-04-23T07:47:03.299Z,20.95
2018-04-23T07:48:03.374Z,21.12
2018-04-23T07:49:03.458Z,20.97
2018-04-23T07:50:03.515Z,21.14
2018-04-23T07:51:03.591Z,20.99
2018-04-23T07:52:03.651Z,20.70
2018-04-23T07:53:03.727Z,21.35
2018-04-23T07:54:03.799Z,21.93
2018-04-23T07:55:03.883Z,22.02
2018-04-23T07:56:03.938Z,22.83
2018-04-23T07:57:04.103Z,23.27
2018-04-23T07:58:04.078Z,23.66
2018-04-23T07:59:04.139Z,24.11
2018-04-23T08:00:04.245Z,24.10
2018-04-23T08:01:04.290Z,23.87
2018-04-23T08:02:04.743Z,23.44
2018-04-23T08:03:04.439Z,23.23
2018-04-23T08:04:04.507Z,23.00
2018-04-23T08:05:04.590Z,23.10
2018-04-23T08:06:05.331Z,23.37
2018-04-23T08:07:04.736Z,23.84
2018-04-23T08:08:05.766Z,23.88
2018-04-23T08:09:04.870Z,24.33
2018-04-23T08:10:04.966Z,24.50
2018-04-23T08:11:05.031Z,24.80
2018-04-23T08:12:05.099Z,25.01
2018-04-23T08:13:05.170Z,24.11
2018-04-23T08:14:05.278Z,24.47
2018-04-23T08:15:05.351Z,24.80
2018-04-23T08:16:05.817Z,24.96
2018-04-23T08:17:05.470Z,25.14
2018-04-23T08:18:05.551Z,24.93
2018-04-23T08:19:05.618Z,25.14
2018-04-23T08:20:05.702Z,24.96
2018-04-23T08:21:05.790Z,25.46
2018-04-23T08:22:05.846Z,26.02
2018-04-23T08:23:05.931Z,25.13
2018-04-23T08:24:05.999Z,24.73
2018-04-23T08:25:06.191Z,24.80
2018-04-23T08:26:06.150Z,24.54
2018-04-23T08:27:06.227Z,24.78
2018-04-23T08:28:06.302Z,24.01
2018-04-23T08:29:06.378Z,23.37
2018-04-23T08:30:06.467Z,22.59
2018-04-23T08:31:06.542Z,22.23
2018-04-23T08:32:06.606Z,21.95
2018-04-23T08:33:06.674Z,21.85
2018-04-23T08:34:06.754Z,22.06
2018-04-23T08:35:06.832Z,21.79
2018-04-23T08:36:06.915Z,21.50
2018-04-23T08:37:06.986Z,21.45
2018-04-23T08:38:07.059Z,21.57
2018-04-23T08:39:07.128Z,21.73
2018-04-23T08:40:07.447Z,21.57
2018-04-23T08:41:07.268Z,21.30
2018-04-23T08:42:07.352Z,21.76
2018-04-23T08:43:07.420Z,21.88
2018-04-23T08:44:07.541Z,22.39
2018-04-23T08:45:09.158Z,22.81
2018-04-23T08:46:07.652Z,23.48
2018-04-23T08:47:07.708Z,23.31
2018-04-23T08:48:07.857Z,23.55
2018-04-23T08:49:07.860Z,22.66
2018-04-23T08:50:07.934Z,22.93
2018-04-23T08:51:08.005Z,23.36
2018-04-23T08:52:08.073Z,23.32
2018-04-23T08:53:08.165Z,23.55
2018-04-23T08:54:08.218Z,23.77
2018-04-23T08:55:08.434Z,23.98
2018-04-23T08:56:08.370Z,23.87
2018-04-23T08:57:08.445Z,23.86
2018-04-23T08:58:08.509Z,24.33
2018-04-23T08:59:08.590Z,24.95
2018-04-23T09:00:08.666Z,25.40
2018-04-23T09:01:08.741Z,26.00
2018-04-23T09:02:08.806Z,25.53
2018-04-23T09:03:08.883Z,25.33
2018-04-23T09:04:08.954Z,25.65
2018-04-23T09:05:09.047Z,25.62
2018-04-23T09:06:09.114Z,25.54
2018-04-23T09:07:09.178Z,25.68
2018-04-23T09:08:09.263Z,25.01
2018-04-23T09:09:09.327Z,25.17
2018-04-23T09:10:09.418Z,25.50
2018-04-23T09:11:09.482Z,25.21
2018-04-23T09:12:09.554Z,24.98
2018-04-23T09:13:09.626Z,25.10
2018-04-23T09:14:09.703Z,25.03
2018-04-23T09:15:09.783Z,24.11
2018-04-23T09:16:09.859Z,24.70
2018-04-23T09:17:09.927Z,24.92
2018-04-23T09:18:10.002Z,25.03
2018-04-23T09:19:10.075Z,25.21
2018-04-23T09:20:10.271Z,24.99
2018-04-23T09:21:10.231Z,24.99
2018-04-23T09:22:10.302Z,25.08
2018-04-23T09:23:10.374Z,24.77
2018-04-23T09:24:10.447Z,24.92
2018-04-23T09:25:10.531Z,25.07
2018-04-23T09:26:10.606Z,24.88
2018-04-23T09:27:10.675Z,24.54
2018-04-23T09:28:10.746Z,24.65
2018-04-23T09:29:10.818Z,24.77
2018-04-23T09:30:10.902Z,24.88
2018-04-23T09:31:10.980Z,24.45
2018-04-23T09:32:11.047Z,24.28
2018-04-23T09:33:11.118Z,24.01
2018-04-23T09:34:11.192Z,24.26
2018-04-23T09:35:11.294Z,24.23
2018-04-23T09:36:11.338Z,24.55
2018-04-23T09:37:11.414Z,25.03
2018-04-23T09:38:11.487Z,25.06
2018-04-23T09:39:11.562Z,24.92
2018-04-23T09:40:11.642Z,25.06
2018-04-23T09:41:11.714Z,24.66
2018-04-23T09:42:11.786Z,24.88
2018-04-23T09:43:11.899Z,24.93
2018-04-23T09:44:11.932Z,23.55
2018-04-23T09:45:12.015Z,22.91
2018-04-23T09:46:12.084Z,23.15
2018-04-23T09:47:12.150Z,23.31
2018-04-23T09:48:12.222Z,22.48
2018-04-23T09:49:12.295Z,21.98
2018-04-23T09:50:12.454Z,22.54
2018-04-23T09:51:12.447Z,22.54
2018-04-23T09:52:12.520Z,23.13
2018-04-23T09:53:12.588Z,22.66
2018-04-23T09:54:12.659Z,22.17
2018-04-23T09:55:12.736Z,22.25
2018-04-23T09:56:12.808Z,22.57
2018-04-23T09:57:12.876Z,23.02
2018-04-23T09:58:12.947Z,22.59
2018-04-23T09:59:13.020Z,23.00
2018-04-23T10:00:13.103Z,23.55
2018-04-23T10:01:13.160Z,23.56
2018-04-23T10:02:13.232Z,23.93
2018-04-23T10:03:13.303Z,24.18
2018-04-23T10:04:13.375Z,24.29
2018-04-23T10:05:13.456Z,23.61
2018-04-23T10:06:13.524Z,23.27
2018-04-23T10:07:13.591Z,23.20
2018-04-23T10:08:13.664Z,22.73
2018-04-23T10:09:13.732Z,22.08
2018-04-23T10:10:13.813Z,21.93
2018-04-23T10:11:13.884Z,22.14
2018-04-23T10:12:13.972Z,22.02
2018-04-23T10:13:14.020Z,21.55
2018-04-23T10:14:14.088Z,21.17
2018-04-23T10:15:14.256Z,20.62
2018-04-23T10:16:14.233Z,20.55
2018-04-23T10:17:14.300Z,20.31
2018-04-23T10:18:14.372Z,20.13
2018-04-23T10:19:14.448Z,20.07
2018-04-23T10:20:14.520Z,19.95
2018-04-23T10:21:14.589Z,19.99
2018-04-23T10:22:14.654Z,20.22
2018-04-23T10:23:14.726Z,21.12
2018-04-23T10:24:14.792Z,21.70
2018-04-23T10:25:14.868Z,22.20
2018-04-23T10:26:14.941Z,22.35
2018-04-23T10:27:15.005Z,22.53
2018-04-23T10:28:15.073Z,22.96
2018-04-23T10:29:15.145Z,22.88
2018-04-23T10:30:15.371Z,23.25
2018-04-23T10:31:15.285Z,23.25
2018-04-23T10:32:15.358Z,22.70
2018-04-23T10:33:15.426Z,22.22
2018-04-23T10:34:15.493Z,21.79
2018-04-23T10:35:15.574Z,21.48
2018-04-23T10:36:15.642Z,21.20
2018-04-23T10:37:15.702Z,20.72
2018-04-23T10:38:15.775Z,20.95
2018-04-23T10:39:15.841Z,21.37
2018-04-23T10:40:15.931Z,21.96
2018-04-23T10:41:15.991Z,22.25
2018-04-23T10:42:16.054Z,22.50
2018-04-23T10:43:16.122Z,22.87
2018-04-23T10:44:16.190Z,22.96
2018-04-23T10:45:16.278Z,22.99
2018-04-23T10:46:16.330Z,23.50
2018-04-23T10:47:16.402Z,23.76
2018-04-23T10:48:16.470Z,23.59
2018-04-23T10:49:16.538Z,23.21
2018-04-23T10:50:16.615Z,23.88
2018-04-23T10:51:16.686Z,23.88
2018-04-23T10:52:16.750Z,23.73
2018-04-23T10:53:16.819Z,23.40
2018-04-23T10:54:16.890Z,23.24
2018-04-23T10:55:16.966Z,22.30
2018-04-23T10:56:17.035Z,21.64
2018-04-23T10:57:17.098Z,21.39
2018-04-23T10:58:17.166Z,21.14
2018-04-23T10:59:17.239Z,21.39
2018-04-23T11:00:17.415Z,21.32
2018-04-23T11:01:17.378Z,21.76
2018-04-23T11:02:17.446Z,22.15
2018-04-23T11:03:17.519Z,22.23
2018-04-23T11:04:17.587Z,22.66
2018-04-23T11:05:17.664Z,22.78
2018-04-23T11:06:17.730Z,22.54
2018-04-23T11:07:17.795Z,22.32
2018-04-23T11:08:17.867Z,21.70
2018-04-23T11:09:17.935Z,21.15
2018-04-23T11:10:18.011Z,20.77
2018-04-23T11:11:18.079Z,20.58
2018-04-23T11:12:18.142Z,20.36
2018-04-23T11:13:18.211Z,20.63
2018-04-23T11:14:18.283Z,21.00
2018-04-23T11:15:18.359Z,21.17
2018-04-23T11:16:18.427Z,21.64
2018-04-23T11:17:18.491Z,22.06
2018-04-23T11:18:18.562Z,21.82
2018-04-23T11:19:18.627Z,21.75
2018-04-23T11:20:18.704Z,21.62
2018-04-23T11:21:18.771Z,21.66
2018-04-23T11:22:18.835Z,21.67
2018-04-23T11:23:18.908Z,21.51
2018-04-23T11:24:18.975Z,21.39
2018-04-23T11:25:19.052Z,21.45
2018-04-23T11:26:19.120Z,21.51
2018-04-23T11:27:19.189Z,21.54
2018-04-23T11:28:19.251Z,21.57
2018-04-23T11:29:19.323Z,21.37
2018-04-23T11:30:19.396Z,21.18
2018-04-23T11:31:19.463Z,21.37
2018-04-23T11:32:19.531Z,21.67
2018-04-23T11:33:19.598Z,21.64
2018-04-23T11:34:19.668Z,21.70
2018-04-23T11:35:19.744Z,21.96
2018-04-23T11:36:19.811Z,22.15
2018-04-23T11:37:19.917Z,22.38
2018-04-23T11:38:20.069Z,22.69
2018-04-23T11:39:20.016Z,22.63
2018-04-23T11:40:20.236Z,22.85
2018-04-23T11:41:20.152Z,22.88
2018-04-23T11:42:20.225Z,23.00
2018-04-23T11:43:20.288Z,23.23
2018-04-23T11:44:20.361Z,23.36
2018-04-23T11:45:20.452Z,23.18
2018-04-23T11:46:20.504Z,23.09
2018-04-23T11:47:20.571Z,23.06
2018-04-23T11:48:20.640Z,23.03
2018-04-23T11:49:20.704Z,23.12
2018-04-23T11:50:20.786Z,23.10
2018-04-23T11:51:20.919Z,23.21
2018-04-23T11:52:20.916Z,23.06
2018-04-23T11:53:20.984Z,23.24
2018-04-23T11:54:21.052Z,23.09
2018-04-23T11:55:21.276Z,23.31
2018-04-23T11:56:21.197Z,23.31
2018-04-23T11:57:21.263Z,23.18
2018-04-23T11:58:21.333Z,23.34
2018-04-23T11:59:21.400Z,23.28
2018-04-23T12:00:21.476Z,23.20
2018-04-23T12:01:21.544Z,23.09
2018-04-23T12:02:21.610Z,23.00
2018-04-23T12:03:21.681Z,23.15
2018-04-23T12:04:21.749Z,23.06
2018-04-23T12:05:21.827Z,23.17
2018-04-23T12:06:21.898Z,23.34
2018-04-23T12:07:21.961Z,23.15
2018-04-23T12:08:22.030Z,23.12
2018-04-23T12:09:22.097Z,22.90
2018-04-23T12:10:22.181Z,22.50
2018-04-23T12:11:22.237Z,22.30
2018-04-23T12:12:22.309Z,22.08
2018-04-23T12:13:22.380Z,22.06
2018-04-23T12:14:22.445Z,22.18
2018-04-23T12:15:22.525Z,22.17
2018-04-23T12:16:22.589Z,21.88
2018-04-23T12:17:22.653Z,21.60
2018-04-23T12:18:22.721Z,21.51
2018-04-23T12:19:22.797Z,21.50
2018-04-23T12:20:22.870Z,21.61
2018-04-23T12:21:22.937Z,21.45
2018-04-23T12:22:22.997Z,21.30
2018-04-23T12:23:23.070Z,21.33
2018-04-23T12:24:23.146Z,21.30
2018-04-23T12:25:23.221Z,21.27
2018-04-23T12:26:23.288Z,20.99
2018-04-23T12:27:23.353Z,20.95
2018-04-23T12:28:23.417Z,20.87
2018-04-23T12:29:23.481Z,21.12
2018-04-23T12:30:23.558Z,21.29
2018-04-23T12:31:23.683Z,21.27
2018-04-23T12:32:23.692Z,21.22
2018-04-23T12:33:23.758Z,21.43
2018-04-23T12:34:23.830Z,21.67
2018-04-23T12:35:23.906Z,21.82
2018-04-23T12:36:23.974Z,21.98
2018-04-23T12:37:24.034Z,22.11
2018-04-23T12:38:24.106Z,22.25
2018-04-23T12:39:24.174Z,22.08
2018-04-23T12:40:24.263Z,22.26
2018-04-23T12:41:24.314Z,22.51
2018-04-23T12:42:24.378Z,22.63
2018-04-23T12:43:24.450Z,22.55
2018-04-23T12:44:24.518Z,22.68
2018-04-23T12:45:24.595Z,22.70
2018-04-23T12:46:24.662Z,22.53
2018-04-23T12:47:24.727Z,22.22
2018-04-23T12:48:24.805Z,21.85
2018-04-23T12:49:24.864Z,21.76
2018-04-23T12:50:24.939Z,21.40
2018-04-23T12:51:25.007Z,21.29
2018-04-23T12:52:25.071Z,21.22
2018-04-23T12:53:25.139Z,21.66